createdAt,value
2019-01-20T06:27:18.764Z,19.29
2019-01-20T06:31:18.719Z,23.10
2019-01-20T08:25:41.954Z,28.00
2019-01-20T08:26:41.941Z,29.00
2019-01-20T08:27:41.935Z,20.50
2019-01-20T08:28:41.940Z,20.00
2019-01-20T08:29:41.937Z,25.20
2019-01-20T08:30:41.942Z,29.60
2019-01-20T08:31:41.888Z,21.29
2019-01-20T08:32:41.886Z,20.10
2019-01-20T08:33:41.888Z,19.39
2019-01-20T08:34:41.892Z,17.00
2019-01-20T08:35:41.895Z,23.89
2019-01-20T08:36:41.831Z,24.00
2019-01-20T08:37:41.822Z,19.60
2019-01-20T08:38:41.810Z,29.29
2019-01-20T08:39:41.797Z,22.89
2019-01-20T08:40:41.787Z,21.29
2019-01-20T08:41:41.774Z,23.50
2019-01-20T08:42:41.769Z,22.70
2019-01-20T08:43:41.751Z,25.00
2019-01-20T08:44:41.741Z,21.10
2019-01-20T08:45:41.736Z,18.60
2019-01-20T08:46:41.722Z,18.50
2019-01-20T08:47:41.711Z,19.89
2019-01-20T08:48:41.700Z,25.10
2019-01-20T08:49:41.685Z,28.60
2019-01-20T08:50:41.675Z,30.39
2019-01-20T08:51:41.664Z,25.89
2019-01-20T08:52:41.659Z,25.20
2019-01-20T08:53:41.640Z,27.89
2019-01-20T08:54:41.630Z,23.60
2019-01-20T08:55:41.617Z,22.20
2019-01-20T08:56:41.611Z,23.29
2019-01-20T08:57:41.597Z,24.89
2019-01-20T08:58:41.582Z,20.70
2019-01-20T08:59:41.572Z,26.70
2019-01-20T09:00:41.561Z,24.00
2019-01-20T09:01:41.550Z,29.60
2019-01-20T09:02:41.541Z,25.20
2019-01-20T09:03:41.528Z,25.20
2019-01-20T09:04:41.515Z,26.70
2019-01-20T09:05:41.502Z,29.79
2019-01-20T09:06:41.550Z,24.60
2019-01-20T09:07:41.480Z,30.79
2019-01-20T09:08:41.468Z,28.00
2019-01-20T09:09:41.458Z,24.20
2019-01-20T09:10:41.446Z,26.39
2019-01-20T09:11:41.437Z,22.39
2019-01-20T09:12:41.425Z,28.20
2019-01-20T09:13:41.413Z,24.50
2019-01-20T09:14:41.406Z,24.50
2019-01-20T09:15:41.389Z,25.79
2019-01-20T09:16:41.380Z,27.29
2019-01-20T09:17:41.366Z,24.39
2019-01-20T09:18:41.360Z,24.29
2019-01-20T09:19:41.352Z,22.60
2019-01-20T09:20:41.337Z,27.39
2019-01-20T09:21:41.322Z,27.79
2019-01-20T09:22:41.314Z,24.29
2019-01-20T09:23:41.302Z,30.50
2019-01-20T09:24:41.288Z,21.70
2019-01-20T09:25:41.278Z,27.39
2019-01-20T09:26:41.272Z,27.39
2019-01-20T09:27:41.255Z,25.50
2019-01-20T09:28:41.246Z,24.10
2019-01-20T09:29:41.233Z,21.70
2019-01-20T09:30:41.221Z,24.70
2019-01-20T09:31:41.215Z,27.29
2019-01-20T09:32:41.219Z,26.39
2019-01-20T09:33:41.196Z,28.10
2019-01-20T09:34:41.176Z,23.39
2019-01-20T09:35:41.163Z,28.60
2019-01-20T09:36:41.152Z,23.20
2019-01-20T09:37:41.141Z,24.79
2019-01-20T09:38:41.136Z,26.89
2019-01-20T09:39:41.121Z,30.89
2019-01-20T09:40:41.107Z,26.89
2019-01-20T09:41:41.100Z,24.29
2019-01-20T09:42:41.085Z,25.60
2019-01-20T09:43:47.095Z,26.89
2019-01-20T09:45:05.544Z,27.89
2019-01-20T09:46:05.537Z,26.50
2019-01-20T09:47:05.519Z,32.00
2019-01-20T09:48:05.510Z,28.70
2019-01-20T09:49:05.497Z,36.29
2019-01-20T09:50:05.495Z,25.70
2019-01-20T09:51:05.477Z,28.39
2019-01-20T09:52:05.463Z,24.20
2019-01-20T09:53:05.451Z,29.79
2019-01-20T09:54:05.448Z,23.89
2019-01-20T09:55:05.435Z,31.39
2019-01-20T09:56:05.418Z,27.70
2019-01-20T09:57:05.407Z,27.39
2019-01-20T09:58:05.394Z,24.70
2019-01-20T09:59:05.421Z,29.79
2019-01-20T10:00:05.372Z,29.79
2019-01-20T10:01:05.360Z,27.50
2019-01-20T10:02:05.349Z,23.20
2019-01-20T10:03:05.337Z,40.70
2019-01-20T10:04:05.327Z,28.79
2019-01-20T10:05:05.316Z,30.20
2019-01-20T10:06:05.305Z,22.39
2019-01-20T10:07:05.295Z,26.20
2019-01-20T10:08:05.285Z,28.20
2019-01-20T10:09:05.278Z,28.00
2019-01-20T10:10:05.262Z,26.79
2019-01-20T10:11:05.249Z,26.89
2019-01-20T10:12:05.238Z,34.79
2019-01-20T10:13:05.233Z,45.29
2019-01-20T10:14:05.217Z,25.10
2019-01-20T10:15:05.204Z,24.60
2019-01-20T10:16:05.197Z,28.10
2019-01-20T10:17:05.189Z,25.50
2019-01-20T10:18:05.179Z,28.00
2019-01-20T10:19:05.166Z,19.29
2019-01-20T10:20:05.149Z,26.10
2019-01-20T10:21:05.161Z,25.20
2019-01-20T10:22:05.128Z,25.70
2019-01-20T10:23:05.124Z,24.70
2019-01-20T10:24:05.106Z,27.79
2019-01-20T10:25:05.095Z,27.79
2019-01-20T10:26:05.086Z,25.20
2019-01-20T10:27:05.070Z,35.20
2019-01-20T10:28:05.063Z,34.29
2019-01-20T10:29:05.051Z,24.50
2019-01-20T10:30:05.037Z,28.29
2019-01-20T10:31:06.072Z,28.79
2019-01-20T10:32:05.013Z,26.39
2019-01-20T10:33:05.004Z,22.20
2019-01-20T10:34:04.988Z,21.70
2019-01-20T10:35:04.980Z,26.50
2019-01-20T10:36:04.970Z,30.29
2019-01-20T10:37:04.952Z,29.60
2019-01-20T10:38:04.943Z,26.70
2019-01-20T10:39:04.931Z,23.10
2019-01-20T10:40:04.919Z,25.20
2019-01-20T10:41:04.907Z,29.50
2019-01-20T10:42:04.895Z,23.89
2019-01-20T10:43:04.885Z,26.10
2019-01-20T10:44:04.876Z,25.60
2019-01-20T10:45:04.862Z,25.79
2019-01-20T10:46:04.850Z,23.70
2019-01-20T10:47:04.841Z,26.70
2019-01-20T10:48:04.827Z,27.00
2019-01-20T10:49:05.378Z,26.79
2019-01-20T10:50:04.806Z,30.60
2019-01-20T10:51:04.796Z,26.50
2019-01-20T10:52:04.784Z,25.29
2019-01-20T10:53:04.773Z,27.20
2019-01-20T10:54:04.764Z,22.89
2019-01-20T10:55:04.770Z,23.50
2019-01-20T10:56:04.744Z,23.70
2019-01-20T10:57:04.729Z,28.60
2019-01-20T10:58:04.716Z,26.10
2019-01-20T10:59:04.704Z,24.10
2019-01-20T11:00:04.695Z,23.60
2019-01-20T11:01:04.686Z,23.60
2019-01-20T11:02:04.673Z,23.50
2019-01-20T11:03:04.660Z,23.29
2019-01-20T11:04:04.653Z,26.00
2019-01-20T11:05:04.640Z,24.20
2019-01-20T11:06:04.626Z,26.29
2019-01-20T11:07:04.618Z,25.70
2019-01-20T11:08:04.602Z,23.20
2019-01-20T11:09:04.596Z,23.79
2019-01-20T11:10:04.581Z,24.29
2019-01-20T11:11:04.576Z,24.79
2019-01-20T11:12:04.558Z,24.50
2019-01-20T11:13:04.552Z,26.70
2019-01-20T11:14:09.403Z,33.70
2019-01-20T11:15:04.530Z,29.60
2019-01-20T11:16:04.513Z,25.60
2019-01-20T11:17:04.509Z,26.29
2019-01-20T11:18:04.491Z,28.00
2019-01-20T11:19:04.485Z,21.29
2019-01-20T11:20:04.469Z,23.70
2019-01-20T11:21:04.462Z,23.00
2019-01-20T11:22:04.448Z,20.50
2019-01-20T11:23:04.434Z,22.70
2019-01-20T11:24:04.422Z,29.89
2019-01-20T11:25:04.422Z,22.29
2019-01-20T11:26:04.399Z,26.20
2019-01-20T11:27:04.393Z,31.10
2019-01-20T11:28:04.378Z,26.39
2019-01-20T11:29:04.365Z,20.89
2019-01-20T11:30:04.357Z,27.20
2019-01-20T11:31:04.350Z,24.70
2019-01-20T11:32:04.333Z,28.29
2019-01-20T11:33:04.323Z,26.89
2019-01-20T11:34:04.317Z,28.20
2019-01-20T11:35:04.299Z,27.00
2019-01-20T11:36:04.291Z,25.79
2019-01-20T11:37:04.276Z,22.70
2019-01-20T11:38:04.267Z,24.39
2019-01-20T11:39:04.266Z,21.20
2019-01-20T11:40:04.242Z,23.20
2019-01-20T11:41:04.233Z,24.70
2019-01-20T11:42:04.221Z,20.60
2019-01-20T11:43:04.213Z,23.70
2019-01-20T11:44:04.197Z,21.00
2019-01-20T11:45:04.186Z,22.10
2019-01-20T11:46:04.186Z,24.70
2019-01-20T11:47:04.164Z,26.60
2019-01-20T11:48:04.151Z,26.39
2019-01-20T11:49:04.138Z,32.79
2019-01-20T11:50:04.132Z,22.50
2019-01-20T11:51:04.117Z,21.60
2019-01-20T11:52:04.104Z,23.50
2019-01-20T11:53:04.096Z,25.10
2019-01-20T11:54:04.089Z,25.20
2019-01-20T11:55:04.071Z,40.20
2019-01-20T11:56:04.059Z,24.50
2019-01-20T11:57:04.054Z,25.39
2019-01-20T11:58:04.036Z,23.20
2019-01-20T11:59:04.025Z,23.10
2019-01-20T12:00:04.013Z,40.50
2019-01-20T12:01:04.010Z,26.10
2019-01-20T12:02:04.005Z,24.39
2019-01-20T12:03:03.977Z,24.20
2019-01-20T12:04:03.966Z,23.39
2019-01-20T12:05:03.961Z,21.50
2019-01-20T12:06:03.943Z,21.89
2019-01-20T12:07:03.936Z,24.29
2019-01-20T12:08:03.920Z,26.00
2019-01-20T12:09:03.911Z,27.60
2019-01-20T12:10:03.902Z,22.60
2019-01-20T12:11:03.891Z,26.39
2019-01-20T12:12:03.875Z,21.60
2019-01-20T12:13:03.867Z,25.89
2019-01-20T12:14:03.858Z,22.29
2019-01-20T12:15:03.841Z,21.60
2019-01-20T12:16:03.830Z,26.50
2019-01-20T12:17:03.821Z,21.79
2019-01-20T12:18:03.808Z,23.79
2019-01-20T12:19:03.803Z,22.50
2019-01-20T12:20:03.788Z,26.00
2019-01-20T12:21:03.838Z,26.00
2019-01-20T12:22:03.761Z,22.60
2019-01-20T12:23:03.753Z,26.39
2019-01-20T12:24:03.739Z,26.50
2019-01-20T12:25:03.753Z,24.89
2019-01-20T12:26:03.716Z,25.89
2019-01-20T12:27:03.705Z,23.39
2019-01-20T12:28:03.698Z,25.60
2019-01-20T12:29:03.691Z,29.29
2019-01-20T12:30:03.678Z,28.70
2019-01-20T12:31:03.660Z,22.89
2019-01-20T12:32:03.654Z,25.29
2019-01-20T12:33:03.640Z,27.70
2019-01-20T12:34:03.629Z,21.89
2019-01-20T12:35:03.616Z,22.39
2019-01-20T12:36:03.605Z,22.60
2019-01-20T12:37:03.595Z,20.00
2019-01-20T12:38:03.583Z,25.20
2019-01-20T12:39:03.577Z,23.60
2019-01-20T12:40:03.567Z,21.39
2019-01-20T12:41:03.548Z,20.50
2019-01-20T12:42:03.546Z,22.10
2019-01-20T12:43:03.532Z,21.50
2019-01-20T12:44:03.515Z,25.60
2019-01-20T12:45:03.503Z,24.29
2019-01-20T12:46:03.494Z,23.50
2019-01-20T12:47:03.483Z,20.70
2019-01-20T12:48:03.471Z,22.39
2019-01-20T12:49:03.465Z,20.20
2019-01-20T12:50:03.456Z,24.00
2019-01-20T12:51:03.437Z,18.89
2019-01-20T12:52:03.424Z,21.00
2019-01-20T12:53:03.414Z,21.70
2019-01-20T12:54:03.407Z,26.29
2019-01-20T12:55:03.393Z,20.89
2019-01-20T12:56:03.382Z,23.00
2019-01-20T12:57:03.383Z,19.10
2019-01-20T12:58:03.362Z,20.10
2019-01-20T12:59:03.347Z,29.29
2019-01-20T13:00:03.334Z,18.60
2019-01-20T13:01:03.323Z,21.50
2019-01-20T13:02:03.312Z,19.20
2019-01-20T13:03:03.305Z,20.79
2019-01-20T13:04:03.292Z,19.89
2019-01-20T13:05:03.282Z,23.20
2019-01-20T13:06:03.272Z,18.50
2019-01-20T13:07:03.254Z,21.29
2019-01-20T13:08:03.243Z,21.00
2019-01-20T13:09:03.236Z,22.50
2019-01-20T13:10:03.224Z,19.60
2019-01-20T13:11:03.209Z,19.29
2019-01-20T13:12:03.199Z,22.60
2019-01-20T13:13:03.188Z,27.50
2019-01-20T13:14:03.180Z,27.79
2019-01-20T13:15:03.169Z,40.90
2019-01-20T13:16:03.154Z,26.29
2019-01-20T13:17:03.146Z,26.10
2019-01-20T13:18:03.132Z,24.79
2019-01-20T13:19:03.122Z,21.00
2019-01-20T13:20:03.111Z,25.10
2019-01-20T13:21:03.102Z,23.39
2019-01-20T13:22:03.094Z,22.60
2019-01-20T13:23:03.076Z,25.10
2019-01-20T13:24:03.064Z,21.60
2019-01-20T13:25:03.062Z,18.50
2019-01-20T13:26:03.042Z,22.79
2019-01-20T13:27:03.039Z,25.20
2019-01-20T13:28:03.020Z,19.29
2019-01-20T13:29:03.009Z,21.89
2019-01-20T13:30:02.997Z,21.29
2019-01-20T13:31:02.991Z,16.70
2019-01-20T13:32:02.975Z,29.60
2019-01-20T13:33:02.963Z,19.00
2019-01-20T13:34:02.955Z,16.50
2019-01-20T13:35:02.952Z,20.70
2019-01-20T13:36:07.131Z,19.89
2019-01-20T13:37:02.962Z,23.89
2019-01-20T13:38:02.908Z,20.50
2019-01-20T13:39:02.906Z,18.20
2019-01-20T13:40:02.908Z,20.79
2019-01-20T13:41:02.914Z,23.20
2019-01-20T13:42:02.918Z,28.00
2019-01-20T13:43:02.858Z,20.60
2019-01-20T13:44:02.840Z,22.39
2019-01-20T13:45:02.830Z,22.29
2019-01-20T13:46:02.816Z,25.29
2019-01-20T13:47:02.806Z,30.39
2019-01-20T13:48:02.797Z,38.40
2019-01-20T13:49:02.782Z,20.10
2019-01-20T13:50:02.770Z,25.79
2019-01-20T13:51:02.759Z,21.70
2019-01-20T13:52:02.749Z,18.70
2019-01-20T13:53:02.735Z,22.60
2019-01-20T13:54:02.723Z,20.79
2019-01-20T13:55:02.713Z,20.39
2019-01-20T13:56:02.699Z,18.50
2019-01-20T13:57:02.695Z,21.50
2019-01-20T13:58:02.676Z,19.60
2019-01-20T13:59:02.666Z,26.70
2019-01-20T14:00:02.660Z,19.50
2019-01-20T14:01:02.642Z,22.50
2019-01-20T14:02:02.630Z,25.70
2019-01-20T14:03:02.619Z,22.20
2019-01-20T14:04:02.608Z,20.10
2019-01-20T14:05:02.605Z,22.79
2019-01-20T14:06:02.585Z,20.89
2019-01-20T14:07:02.574Z,15.10
2019-01-20T14:08:02.565Z,22.10
2019-01-20T14:09:02.552Z,22.10
2019-01-20T14:10:02.539Z,21.50
2019-01-20T14:11:02.529Z,24.79
2019-01-20T14:12:02.517Z,23.00
2019-01-20T14:13:02.510Z,23.29
2019-01-20T14:14:02.499Z,24.50
2019-01-20T14:15:02.488Z,24.10
2019-01-20T14:16:02.487Z,25.00
2019-01-20T14:17:02.468Z,19.29
2019-01-20T14:18:02.467Z,20.00
2019-01-20T14:19:02.440Z,21.00
2019-01-20T14:20:02.431Z,21.20
2019-01-20T14:21:02.417Z,20.89
2019-01-20T14:22:02.406Z,15.39
2019-01-20T14:23:02.399Z,18.89
2019-01-20T14:24:02.390Z,21.00
2019-01-20T14:25:02.374Z,17.79
2019-01-20T14:26:02.362Z,21.20
2019-01-20T14:27:02.353Z,18.50
2019-01-20T14:28:02.343Z,21.39
2019-01-20T14:29:02.330Z,18.79
2019-01-20T14:30:02.322Z,14.89
2019-01-20T14:31:02.309Z,15.30
2019-01-20T14:32:02.298Z,16.10
2019-01-20T14:33:02.294Z,19.89
2019-01-20T14:34:02.280Z,18.79
2019-01-20T14:35:02.265Z,27.60
2019-01-20T14:36:02.253Z,15.00
2019-01-20T14:37:02.242Z,24.79
2019-01-20T14:38:02.239Z,19.39
2019-01-20T14:39:02.225Z,15.80
2019-01-20T14:40:02.210Z,15.80
2019-01-20T14:41:02.201Z,15.50
2019-01-20T14:42:02.191Z,18.79
2019-01-20T14:43:02.175Z,19.70
2019-01-20T14:44:02.171Z,19.60
2019-01-20T14:45:02.159Z,18.79
2019-01-20T14:46:02.142Z,15.60
2019-01-20T14:47:02.129Z,17.60
2019-01-20T14:48:02.125Z,16.10
2019-01-20T14:49:02.107Z,17.50
2019-01-20T14:50:02.096Z,19.39
2019-01-20T14:51:02.087Z,17.10
2019-01-20T14:52:02.072Z,18.70
2019-01-20T14:53:02.062Z,20.29
2019-01-20T14:54:02.050Z,15.10
2019-01-20T14:55:02.041Z,21.20
2019-01-20T14:56:02.030Z,22.00
2019-01-20T14:57:02.016Z,19.29
2019-01-20T14:58:02.006Z,24.10
2019-01-20T14:59:01.993Z,20.10
2019-01-20T15:00:01.983Z,18.79
2019-01-20T15:01:01.971Z,20.60
2019-01-20T15:02:01.962Z,19.89
2019-01-20T15:03:01.958Z,17.50
2019-01-20T15:04:01.937Z,19.79
2019-01-20T15:05:01.926Z,18.00
2019-01-20T15:06:01.915Z,15.39
2019-01-20T15:07:01.903Z,18.70
2019-01-20T15:08:01.896Z,17.50
2019-01-20T15:09:01.879Z,19.10
2019-01-20T15:10:01.868Z,17.29
2019-01-20T15:11:01.855Z,20.20
2019-01-20T15:12:01.851Z,15.30
2019-01-20T15:13:01.841Z,18.00
2019-01-20T15:14:01.824Z,20.60
2019-01-20T15:15:08.665Z,17.50
2019-01-20T15:16:26.284Z,17.50
2019-01-20T15:17:26.269Z,16.50
2019-01-20T15:18:26.258Z,21.70
2019-01-20T15:19:26.253Z,39.79
2019-01-20T15:20:26.241Z,15.89
2019-01-20T15:21:26.231Z,15.19
2019-01-20T15:22:26.214Z,15.89
2019-01-20T15:23:26.203Z,17.70
2019-01-20T15:24:31.105Z,13.00
2019-01-20T15:25:26.182Z,20.29
2019-01-20T15:26:26.175Z,14.80
2019-01-20T15:27:26.164Z,18.79
2019-01-20T15:28:26.145Z,17.50
2019-01-20T15:29:26.134Z,12.00
2019-01-20T15:30:26.124Z,15.39
2019-01-20T15:31:26.110Z,14.60
2019-01-20T15:32:26.100Z,15.39
2019-01-20T15:33:26.090Z,15.30
2019-01-20T15:34:26.077Z,16.60
2019-01-20T15:35:26.067Z,15.60
2019-01-20T15:36:26.054Z,20.00
2019-01-20T15:37:26.044Z,16.20
2019-01-20T15:38:26.033Z,15.30
2019-01-20T15:39:26.021Z,14.39
2019-01-20T15:40:26.012Z,12.00
2019-01-20T15:41:25.999Z,12.50
2019-01-20T15:42:25.990Z,16.29
2019-01-20T15:43:25.977Z,16.89
2019-01-20T15:44:25.967Z,17.60
2019-01-20T15:45:25.955Z,16.29
2019-01-20T15:46:25.944Z,13.10
2019-01-20T15:47:25.935Z,20.00
2019-01-20T15:48:25.923Z,13.80
2019-01-20T15:49:25.912Z,15.50
2019-01-20T15:50:25.899Z,20.89
2019-01-20T15:51:25.897Z,14.89
2019-01-20T15:52:25.877Z,16.70
2019-01-20T15:53:25.867Z,22.79
2019-01-20T15:54:25.855Z,20.79
2019-01-20T15:55:25.845Z,17.79
2019-01-20T15:56:25.834Z,18.10
2019-01-20T15:57:25.824Z,17.10
2019-01-20T15:58:26.790Z,15.50
2019-01-20T15:59:25.801Z,15.19
2019-01-20T16:00:25.789Z,17.39
2019-01-20T16:01:25.780Z,16.00
2019-01-20T16:02:25.772Z,15.60
2019-01-20T16:03:25.756Z,13.10
2019-01-20T16:06:25.730Z,19.60
2019-01-20T16:07:25.714Z,18.20
2019-01-20T16:08:25.701Z,14.69
2019-01-20T16:09:25.693Z,12.80
2019-01-20T16:10:25.680Z,18.00
2019-01-20T16:11:25.672Z,17.89
2019-01-20T16:12:25.661Z,17.60
2019-01-20T16:13:25.651Z,15.50
2019-01-20T16:14:25.642Z,17.70
2019-01-20T16:15:25.624Z,17.29
2019-01-20T16:16:25.616Z,17.39
2019-01-20T16:17:25.602Z,17.00
2019-01-20T16:18:25.590Z,14.19
2019-01-20T16:19:25.578Z,20.89
2019-01-20T16:20:25.570Z,14.19
2019-01-20T16:21:25.556Z,14.89
2019-01-20T16:22:25.545Z,18.70
2019-01-20T16:23:25.535Z,15.50
2019-01-20T16:24:25.526Z,15.69
2019-01-20T16:25:25.514Z,16.50
2019-01-20T16:26:25.502Z,16.89
2019-01-20T16:27:25.490Z,13.19
2019-01-20T16:28:25.485Z,16.29
2019-01-20T16:29:25.471Z,13.10
2019-01-20T16:30:25.455Z,12.19
2019-01-20T16:31:25.451Z,16.29
2019-01-20T16:32:25.433Z,14.80
2019-01-20T16:33:25.423Z,15.30
2019-01-20T16:34:25.426Z,11.69
2019-01-20T16:35:25.400Z,12.00
2019-01-20T16:36:25.392Z,14.60
2019-01-20T16:37:25.377Z,13.69
2019-01-20T16:38:25.370Z,14.39
2019-01-20T16:39:25.767Z,17.20
2019-01-20T16:40:25.344Z,21.00
2019-01-20T16:41:25.332Z,14.30
2019-01-20T16:42:25.343Z,13.50
2019-01-20T16:43:25.310Z,17.39
2019-01-20T16:45:31.934Z,17.00
2019-01-20T16:46:26.303Z,14.60
2019-01-20T16:50:25.237Z,15.30
2019-01-20T16:55:25.174Z,23.60
2019-01-20T17:04:25.070Z,15.00
2019-01-20T17:11:24.996Z,14.00
2019-01-20T17:15:24.947Z,19.10
2019-01-20T17:17:24.926Z,24.10
2019-01-20T17:18:24.914Z,14.19
2019-01-20T17:19:24.903Z,20.39
2019-01-20T17:20:24.891Z,14.19
2019-01-20T17:21:24.884Z,11.89
2019-01-20T17:23:24.857Z,12.10
2019-01-20T17:24:24.853Z,22.20
2019-01-20T17:25:24.837Z,16.00
2019-01-20T17:26:24.827Z,21.20
2019-01-20T17:27:24.820Z,14.00
2019-01-20T17:28:24.809Z,14.39
2019-01-20T17:29:24.792Z,19.39
2019-01-20T17:30:24.784Z,17.00
2019-01-20T17:31:24.777Z,13.39
2019-01-20T17:32:24.764Z,21.60
2019-01-20T17:33:24.750Z,14.00
2019-01-20T17:34:24.737Z,12.89
2019-01-20T17:35:24.729Z,15.80
2019-01-20T17:36:24.715Z,22.00
2019-01-20T17:37:24.705Z,19.39
2019-01-20T17:38:24.694Z,18.89
2019-01-20T17:39:24.684Z,16.70
2019-01-20T17:40:24.676Z,13.60
2019-01-20T17:41:24.669Z,17.29
2019-01-20T17:42:24.650Z,15.60
2019-01-20T17:43:24.640Z,17.10
2019-01-20T17:44:24.631Z,16.70
2019-01-20T17:45:24.620Z,23.79
2019-01-20T17:46:24.609Z,18.10
2019-01-20T17:47:24.597Z,16.39
2019-01-20T17:50:24.564Z,16.20
2019-01-20T17:51:24.554Z,17.20
2019-01-20T17:52:24.550Z,19.20
2019-01-20T17:53:24.531Z,16.20
2019-01-20T17:54:24.523Z,18.60
2019-01-20T17:55:24.519Z,21.79
2019-01-20T18:07:24.378Z,17.79
2019-01-20T18:08:24.371Z,16.50
2019-01-20T18:10:24.345Z,23.39
2019-01-20T18:12:24.325Z,18.29
2019-01-20T18:13:24.314Z,17.10
2019-01-20T18:14:24.301Z,16.89
2019-01-20T18:15:24.293Z,17.10
2019-01-20T18:16:24.279Z,16.50
2019-01-20T18:17:24.276Z,18.60
2019-01-20T18:18:24.262Z,18.79
2019-01-20T18:19:24.256Z,13.10
2019-01-20T18:20:24.238Z,13.00
2019-01-20T18:21:24.229Z,15.69
2019-01-20T18:32:24.106Z,19.60
2019-01-20T18:42:23.998Z,21.50
2019-01-20T18:43:23.985Z,24.20
2019-01-20T18:44:23.984Z,18.00
2019-01-20T18:45:23.987Z,22.39
2019-01-20T18:46:24.000Z,18.70
2019-01-20T18:49:23.940Z,16.00
2019-01-20T18:50:23.946Z,18.50
2019-01-20T18:53:23.875Z,21.10
2019-01-20T18:55:23.857Z,16.60
2019-01-20T18:56:23.842Z,18.50
2019-01-20T18:57:23.832Z,18.29
2019-01-20T18:58:23.826Z,13.89
2019-01-20T18:59:23.810Z,14.69
2019-01-20T19:00:23.803Z,20.10
2019-01-20T19:01:23.796Z,16.50
2019-01-20T19:02:23.776Z,20.70
2019-01-20T19:03:23.765Z,14.30
2019-01-20T19:04:23.759Z,14.19
2019-01-20T19:05:23.743Z,17.79
2019-01-20T19:06:23.732Z,15.69
2019-01-20T19:07:23.721Z,15.19
2019-01-20T19:08:23.710Z,19.10
2019-01-20T19:09:23.698Z,15.10
2019-01-20T19:10:23.687Z,16.10
2019-01-20T19:11:23.678Z,17.10
2019-01-20T19:12:23.670Z,14.80
2019-01-20T19:13:23.657Z,17.89
2019-01-20T19:14:23.645Z,17.39
2019-01-20T19:15:23.639Z,17.20
2019-01-20T19:16:23.622Z,16.29
2019-01-20T19:17:23.611Z,16.60
2019-01-20T19:18:23.599Z,17.79
2019-01-20T19:19:23.589Z,15.50
2019-01-20T19:20:23.586Z,14.50
2019-01-20T19:21:23.566Z,15.19
2019-01-20T19:22:23.555Z,24.20
2019-01-20T19:23:23.546Z,19.00
2019-01-20T19:28:23.488Z,17.20
2019-01-20T19:29:23.481Z,15.19
2019-01-20T19:30:23.471Z,17.00
2019-01-20T19:31:23.455Z,14.50
2019-01-20T19:32:23.443Z,16.39
2019-01-20T19:33:23.434Z,19.00
2019-01-20T19:34:23.424Z,20.29
2019-01-20T19:35:23.408Z,19.70
2019-01-20T19:36:23.398Z,21.20
2019-01-20T19:37:23.390Z,16.39
2019-01-20T19:38:23.381Z,17.10
2019-01-20T19:39:23.370Z,19.70
2019-01-20T19:40:23.353Z,17.79
2019-01-20T19:41:23.341Z,19.00
2019-01-20T19:42:23.330Z,14.89
2019-01-20T19:43:23.318Z,16.79
2019-01-20T19:44:23.308Z,15.30
2019-01-20T19:45:23.302Z,20.89
2019-01-20T19:46:23.286Z,14.50
2019-01-20T19:47:23.275Z,22.10
2019-01-20T19:48:23.265Z,20.20
2019-01-20T19:49:23.253Z,20.00
2019-01-20T19:50:23.249Z,26.00
2019-01-20T19:51:23.235Z,21.70
2019-01-20T19:52:23.220Z,21.29
2019-01-20T19:53:23.211Z,19.70
2019-01-20T19:54:23.200Z,21.00
2019-01-20T19:55:24.177Z,15.30
2019-01-20T19:56:23.173Z,21.89
2019-01-20T19:57:23.162Z,17.39
2019-01-20T19:58:23.154Z,21.89
2019-01-20T19:59:23.146Z,19.29
2019-01-20T20:00:23.130Z,16.50
2019-01-20T20:01:23.125Z,25.50
2019-01-20T20:03:23.096Z,20.39
2019-01-20T20:04:23.083Z,22.20
2019-01-20T20:05:23.072Z,16.39
2019-01-20T20:06:23.063Z,22.70
2019-01-20T20:08:23.041Z,21.89
2019-01-20T20:11:23.035Z,14.10
2019-01-20T20:17:22.942Z,20.00
2019-01-20T23:00:21.127Z,14.60
